createdAt,value
2022-10-01T00:01:13.953Z,10.73
2022-10-01T00:03:41.826Z,10.70
2022-10-01T00:06:12.777Z,10.68
2022-10-01T00:08:41.847Z,10.66
2022-10-01T00:11:14.274Z,10.63
2022-10-01T00:13:43.414Z,10.61
2022-10-01T00:16:13.189Z,10.59
2022-10-01T00:18:43.882Z,10.56
2022-10-01T00:21:13.853Z,10.55
2022-10-01T00:23:43.188Z,10.52
2022-10-01T00:26:15.482Z,10.50
2022-10-01T00:28:45.295Z,10.47
2022-10-01T00:31:14.878Z,10.43
2022-10-01T00:33:44.339Z,10.40
2022-10-01T00:36:12.876Z,10.39
2022-10-01T00:38:42.361Z,10.36
2022-10-01T00:41:10.996Z,10.36
2022-10-01T00:43:45.114Z,10.33
2022-10-01T00:46:19.058Z,10.33
2022-10-01T00:48:53.438Z,10.35
2022-10-01T00:51:21.536Z,10.33
2022-10-01T00:53:49.122Z,10.32
2022-10-01T00:56:16.665Z,10.32
2022-10-01T00:58:45.419Z,10.29
2022-10-01T01:01:13.024Z,10.27
2022-10-01T01:03:40.683Z,10.25
2022-10-01T01:06:09.648Z,10.23
2022-10-01T01:08:37.175Z,10.22
2022-10-01T01:11:14.964Z,10.19
2022-10-01T01:13:53.750Z,10.19
2022-10-01T01:16:27.908Z,10.18
2022-10-01T01:19:02.864Z,10.15
2022-10-01T01:21:34.166Z,10.14
2022-10-01T01:24:26.970Z,10.12
2022-10-01T01:27:13.704Z,10.11
2022-10-01T01:29:50.593Z,10.14
2022-10-01T01:32:23.998Z,10.16
2022-10-01T01:34:55.032Z,10.17
2022-10-01T01:37:27.479Z,10.16
2022-10-01T01:39:59.604Z,10.15
2022-10-01T01:42:31.079Z,10.14
2022-10-01T01:45:03.846Z,10.13
2022-10-01T01:47:32.977Z,10.12
2022-10-01T01:50:04.644Z,10.08
2022-10-01T01:52:33.691Z,10.04
2022-10-01T01:55:05.208Z,10.01
2022-10-01T01:57:33.463Z,10.00
2022-10-01T02:00:03.881Z,9.99
2022-10-01T02:02:38.116Z,10.00
2022-10-01T02:05:09.947Z,9.99
2022-10-01T02:07:53.102Z,9.98
2022-10-01T02:10:36.261Z,9.91
2022-10-01T02:13:19.086Z,9.83
2022-10-01T02:16:01.422Z,9.81
2022-10-01T02:18:43.176Z,9.84
2022-10-01T02:21:17.284Z,9.83
2022-10-01T02:23:52.097Z,9.82
2022-10-01T02:26:23.718Z,9.77
2022-10-01T02:28:54.923Z,9.74
2022-10-01T02:31:24.832Z,9.74
2022-10-01T02:33:54.475Z,9.71
2022-10-01T02:36:26.718Z,9.66
2022-10-01T02:38:58.300Z,9.61
2022-10-01T02:41:29.541Z,9.59
2022-10-01T02:44:00.261Z,9.54
2022-10-01T02:46:37.361Z,9.52
2022-10-01T02:49:05.930Z,9.49
2022-10-01T02:51:42.345Z,9.47
2022-10-01T02:54:16.902Z,9.46
2022-10-01T02:57:02.738Z,9.42
2022-10-01T02:59:30.264Z,9.35
2022-10-01T03:01:59.202Z,9.31
2022-10-01T03:04:26.734Z,9.27
2022-10-01T03:06:54.194Z,9.26
2022-10-01T03:09:21.840Z,9.23
2022-10-01T03:11:49.295Z,9.25
2022-10-01T03:14:17.117Z,9.20
2022-10-01T03:16:44.648Z,9.21
2022-10-01T03:19:13.385Z,9.23
2022-10-01T03:21:40.817Z,9.22
2022-10-01T03:24:08.291Z,9.17
2022-10-01T03:26:36.406Z,9.18
2022-10-01T03:29:04.287Z,9.22
2022-10-01T03:31:32.373Z,9.21
2022-10-01T03:34:00.338Z,9.19
2022-10-01T03:36:29.199Z,9.18
2022-10-01T03:38:57.028Z,9.20
2022-10-01T03:41:24.549Z,9.19
2022-10-01T03:43:53.621Z,9.18
2022-10-01T03:46:23.665Z,9.19
2022-10-01T03:48:51.218Z,9.15
2022-10-01T03:51:20.778Z,9.11
2022-10-01T03:53:50.043Z,9.09
2022-10-01T03:56:18.461Z,9.11
2022-10-01T03:58:45.990Z,9.15
2022-10-01T04:01:13.614Z,9.20
2022-10-01T04:03:41.511Z,9.25
2022-10-01T04:06:09.070Z,9.23
2022-10-01T04:08:37.137Z,9.25
2022-10-01T04:11:06.166Z,9.26
2022-10-01T04:13:34.601Z,9.27
2022-10-01T04:16:02.608Z,9.28
2022-10-01T04:19:01.702Z,9.29
2022-10-01T04:21:32.912Z,9.32
2022-10-01T04:24:01.126Z,9.33
2022-10-01T04:26:29.976Z,9.30
2022-10-01T04:28:57.460Z,9.25
2022-10-01T04:31:25.253Z,9.29
2022-10-01T04:33:53.777Z,9.25
2022-10-01T04:36:21.987Z,9.21
2022-10-01T04:38:52.025Z,9.21
2022-10-01T04:41:19.503Z,9.20
2022-10-01T04:43:48.874Z,9.19
2022-10-01T04:46:16.866Z,9.17
2022-10-01T04:48:44.584Z,9.13
2022-10-01T04:51:12.213Z,9.14
2022-10-01T04:53:39.939Z,9.16
2022-10-01T04:56:07.842Z,9.14
2022-10-01T04:58:35.714Z,9.16
2022-10-01T05:01:07.535Z,9.14
2022-10-01T05:03:38.762Z,9.17
2022-10-01T05:06:09.702Z,9.19
2022-10-01T05:08:42.455Z,9.20
2022-10-01T05:11:12.349Z,9.17
2022-10-01T05:13:46.473Z,9.14
2022-10-01T05:16:32.114Z,9.12
2022-10-01T05:19:25.299Z,9.12
2022-10-01T05:22:08.492Z,9.15
2022-10-01T05:24:47.071Z,9.17
2022-10-01T05:27:27.540Z,9.19
2022-10-01T05:30:10.156Z,9.19
2022-10-01T05:33:13.154Z,9.18
2022-10-01T05:35:46.391Z,9.20
2022-10-01T05:38:19.832Z,9.18
2022-10-01T05:41:05.550Z,9.19
2022-10-01T05:43:50.029Z,9.18
2022-10-01T05:46:33.901Z,9.20
2022-10-01T05:49:15.393Z,9.17
2022-10-01T05:52:07.083Z,9.17
2022-10-01T05:54:50.669Z,9.20
2022-10-01T05:57:31.457Z,9.25
2022-10-01T06:00:12.278Z,9.29
2022-10-01T06:02:50.241Z,9.35
2022-10-01T06:05:36.905Z,9.40
2022-10-01T06:08:21.702Z,9.46
2022-10-01T06:11:18.762Z,9.48
2022-10-01T06:13:59.048Z,9.52
2022-10-01T06:16:33.028Z,9.56
2022-10-01T06:19:22.323Z,9.65
2022-10-01T06:22:30.253Z,9.72
2022-10-01T06:25:09.267Z,9.75
2022-10-01T06:27:42.380Z,9.80
2022-10-01T06:30:18.445Z,9.82
2022-10-01T06:32:50.650Z,9.89
2022-10-01T06:38:22.613Z,9.90
2022-10-01T06:41:12.684Z,9.94
2022-10-01T06:46:45.510Z,10.03
2022-10-01T06:55:26.119Z,10.02
2022-10-01T06:57:59.201Z,10.06
2022-10-01T07:00:38.709Z,10.10
2022-10-01T07:03:24.229Z,10.16
2022-10-01T07:06:21.515Z,10.17
2022-10-01T07:08:55.086Z,10.18
2022-10-01T07:12:15.279Z,10.24
2022-10-01T07:15:05.953Z,10.27
2022-10-01T07:17:47.174Z,10.31
2022-10-01T07:20:32.094Z,10.35
2022-10-01T07:23:34.367Z,10.36
2022-10-01T07:26:27.266Z,10.38
2022-10-01T07:29:15.099Z,10.39
2022-10-01T07:35:17.734Z,10.48
2022-10-01T07:38:23.413Z,10.50
2022-10-01T07:45:23.331Z,10.58
2022-10-01T07:48:47.243Z,10.65
2022-10-01T07:52:02.470Z,10.67
2022-10-01T07:54:38.810Z,10.72
2022-10-01T07:57:06.802Z,10.79
2022-10-01T07:59:34.326Z,10.86
2022-10-01T08:02:03.406Z,10.94
2022-10-01T08:04:48.697Z,11.01
2022-10-01T08:07:16.413Z,11.06
2022-10-01T08:09:43.899Z,11.06
2022-10-01T08:12:11.364Z,11.13
2022-10-01T08:14:38.919Z,11.16
2022-10-01T08:17:07.714Z,11.19
2022-10-01T08:19:36.462Z,11.22
2022-10-01T08:22:04.133Z,11.26
2022-10-01T08:24:31.743Z,11.31
2022-10-01T08:26:59.321Z,11.36
2022-10-01T08:29:26.887Z,11.46
2022-10-01T08:31:54.500Z,11.54
2022-10-01T08:34:23.521Z,11.60
2022-10-01T08:36:51.987Z,11.66
2022-10-01T08:39:20.447Z,11.70
2022-10-01T08:41:56.051Z,11.73
2022-10-01T08:44:29.430Z,11.80
2022-10-01T08:47:00.979Z,11.88
2022-10-01T08:49:35.302Z,11.92
2022-10-01T08:52:13.882Z,11.98
2022-10-01T08:54:47.700Z,12.05
2022-10-01T08:57:19.189Z,12.14
2022-10-01T08:59:50.317Z,12.26
2022-10-01T09:02:23.868Z,12.33
2022-10-01T09:05:00.320Z,12.45
2022-10-01T09:07:42.076Z,12.57
2022-10-01T09:10:25.593Z,12.65
2022-10-01T09:13:10.884Z,12.70
2022-10-01T09:15:51.070Z,12.79
2022-10-01T09:18:28.331Z,12.86
2022-10-01T09:21:00.327Z,12.93
2022-10-01T09:23:33.110Z,12.96
2022-10-01T09:26:03.613Z,12.96
2022-10-01T09:28:48.365Z,12.99
2022-10-01T09:31:23.190Z,13.07
2022-10-01T09:33:57.534Z,13.17
2022-10-01T09:36:35.806Z,13.19
2022-10-01T09:39:14.535Z,13.12
2022-10-01T09:41:42.805Z,13.13
2022-10-01T09:44:19.672Z,14.11
2022-10-01T09:46:48.358Z,14.08
2022-10-01T09:49:28.527Z,13.96
2022-10-01T09:52:02.823Z,13.88
2022-10-01T09:54:36.796Z,13.80
2022-10-01T09:57:09.852Z,13.74
2022-10-01T09:59:45.304Z,13.71
2022-10-01T10:02:23.702Z,13.62
2022-10-01T10:08:06.213Z,13.44
2022-10-01T10:10:37.575Z,13.41
2022-10-01T10:13:18.334Z,13.37
2022-10-01T10:15:56.526Z,13.56
2022-10-01T10:18:34.325Z,13.32
2022-10-01T10:21:17.205Z,13.12
2022-10-01T10:23:53.300Z,12.89
2022-10-01T10:26:28.891Z,12.78
2022-10-01T10:28:58.517Z,12.67
2022-10-01T10:31:29.402Z,13.32
2022-10-01T10:34:04.098Z,14.22
2022-10-01T10:36:35.402Z,13.47
2022-10-01T10:39:07.615Z,12.99
2022-10-01T10:41:36.117Z,12.72
2022-10-01T10:44:08.428Z,12.49
2022-10-01T10:46:39.940Z,12.30
2022-10-01T10:49:21.355Z,12.11
2022-10-01T10:51:54.081Z,11.94
2022-10-01T10:54:26.835Z,11.75
2022-10-01T10:57:02.618Z,11.56
2022-10-01T10:59:34.059Z,11.42
2022-10-01T11:02:05.494Z,11.29
2022-10-01T11:04:40.860Z,11.21
2022-10-01T11:07:09.298Z,11.17
2022-10-01T11:10:02.694Z,11.09
2022-10-01T11:12:44.285Z,11.04
2022-10-01T11:15:26.458Z,10.97
2022-10-01T11:18:09.499Z,10.93
2022-10-01T11:20:50.485Z,10.92
2022-10-01T11:23:40.330Z,10.87
2022-10-01T11:26:20.567Z,10.83
2022-10-01T11:29:00.639Z,10.79
2022-10-01T11:31:40.014Z,10.74
2022-10-01T11:34:38.266Z,10.72
2022-10-01T11:37:13.573Z,10.70
2022-10-01T11:39:43.942Z,10.69
2022-10-01T11:42:19.787Z,10.68
2022-10-01T11:44:56.310Z,10.69
2022-10-01T11:47:34.750Z,10.69
2022-10-01T11:50:05.628Z,10.71
2022-10-01T11:52:38.256Z,10.70
2022-10-01T11:55:32.693Z,10.70
2022-10-01T11:58:25.413Z,10.72
2022-10-01T12:01:04.288Z,10.73
2022-10-01T12:03:38.118Z,10.75
2022-10-01T12:06:10.921Z,10.73
2022-10-01T12:08:41.393Z,10.73
2022-10-01T12:11:18.851Z,10.72
2022-10-01T12:13:55.218Z,10.73
2022-10-01T12:16:35.268Z,10.73
2022-10-01T12:19:06.044Z,10.73
2022-10-01T12:21:38.883Z,10.73
2022-10-01T12:24:14.017Z,10.73
2022-10-01T12:26:50.834Z,10.74
2022-10-01T12:29:28.011Z,10.75
2022-10-01T12:32:01.520Z,10.79
2022-10-01T12:34:37.975Z,10.79
2022-10-01T12:37:21.792Z,10.80
2022-10-01T12:40:03.842Z,10.80
2022-10-01T12:42:49.341Z,10.81
2022-10-01T12:45:29.093Z,10.79
2022-10-01T12:48:05.892Z,10.78
2022-10-01T12:50:44.603Z,10.80
2022-10-01T12:53:27.000Z,10.79
2022-10-01T12:56:01.655Z,10.78
2022-10-01T12:58:46.357Z,10.75
2022-10-01T13:01:24.847Z,10.74
2022-10-01T13:04:14.635Z,10.73
2022-10-01T13:06:55.004Z,10.72
2022-10-01T13:09:33.727Z,10.70
2022-10-01T13:12:18.070Z,10.70
2022-10-01T13:14:47.320Z,10.72
2022-10-01T13:17:23.557Z,10.73
2022-10-01T13:19:56.802Z,10.73
2022-10-01T13:22:34.957Z,10.72
2022-10-01T13:25:22.718Z,10.71
2022-10-01T13:27:57.557Z,10.72
2022-10-01T13:30:28.832Z,10.73
2022-10-01T13:33:00.952Z,10.74
2022-10-01T13:35:35.442Z,10.76
2022-10-01T13:38:15.088Z,10.73
2022-10-01T13:40:42.942Z,10.76
2022-10-01T13:43:18.782Z,10.77
2022-10-01T13:45:48.489Z,10.79
2022-10-01T13:48:21.064Z,10.82
2022-10-01T13:50:58.688Z,10.82
2022-10-01T13:53:29.691Z,10.85
2022-10-01T13:55:58.759Z,10.88
2022-10-01T13:58:36.217Z,10.91
2022-10-01T14:01:10.163Z,10.92
2022-10-01T14:03:49.572Z,10.94
2022-10-01T14:06:24.836Z,10.99
2022-10-01T14:09:00.536Z,11.02
2022-10-01T14:11:48.869Z,11.06
2022-10-01T14:14:40.861Z,11.09
2022-10-01T14:17:10.775Z,11.12
2022-10-01T14:19:46.893Z,11.14
2022-10-01T14:22:36.346Z,11.16
2022-10-01T14:25:16.950Z,11.19
2022-10-01T14:27:49.107Z,11.21
2022-10-01T14:30:19.418Z,11.24
2022-10-01T14:33:09.868Z,11.27
2022-10-01T14:35:41.703Z,11.31
2022-10-01T14:38:14.433Z,11.33
2022-10-01T14:40:43.787Z,11.35
2022-10-01T14:43:21.648Z,11.36
2022-10-01T14:45:55.192Z,11.39
2022-10-01T14:48:23.977Z,11.40
2022-10-01T14:50:56.040Z,11.43
2022-10-01T14:53:26.337Z,11.47
2022-10-01T14:55:56.092Z,11.47
2022-10-01T14:58:27.597Z,11.50
2022-10-01T15:00:57.809Z,11.52
2022-10-01T15:03:26.128Z,11.55
2022-10-01T15:06:04.617Z,11.57
2022-10-01T15:08:39.727Z,11.58
2022-10-01T15:11:10.311Z,11.61
2022-10-01T15:13:41.016Z,11.62
2022-10-01T15:16:13.420Z,11.64
2022-10-01T15:18:46.587Z,11.67
2022-10-01T15:21:20.444Z,11.70
2022-10-01T15:23:49.679Z,11.72
2022-10-01T15:26:32.667Z,11.73
2022-10-01T15:29:07.565Z,11.79
2022-10-01T15:31:35.658Z,11.80
2022-10-01T15:34:09.295Z,11.82
2022-10-01T15:36:48.476Z,11.85
2022-10-01T15:39:26.381Z,11.86
2022-10-01T15:42:40.669Z,11.89
2022-10-01T15:45:28.047Z,11.93
2022-10-01T15:47:59.280Z,11.95
2022-10-01T15:50:40.344Z,11.98
2022-10-01T15:53:28.618Z,12.00
2022-10-01T15:56:16.115Z,12.02
2022-10-01T15:58:53.346Z,12.03
2022-10-01T16:01:28.459Z,12.05
2022-10-01T16:04:10.491Z,12.06
2022-10-01T16:06:48.761Z,12.08
2022-10-01T16:09:28.502Z,12.11
2022-10-01T16:12:05.308Z,12.11
2022-10-01T16:14:39.588Z,12.10
2022-10-01T16:17:27.923Z,12.10
2022-10-01T16:20:17.740Z,12.10
2022-10-01T16:22:48.774Z,12.10
2022-10-01T16:25:42.315Z,12.08
2022-10-01T16:28:27.396Z,12.09
2022-10-01T16:30:58.092Z,12.09
2022-10-01T16:33:27.236Z,12.08
2022-10-01T16:36:10.414Z,12.06
2022-10-01T16:38:41.025Z,12.06
2022-10-01T16:41:10.983Z,12.08
2022-10-01T16:43:41.199Z,12.05
2022-10-01T16:46:11.580Z,12.06
2022-10-01T16:48:40.793Z,12.04
2022-10-01T16:51:11.278Z,12.03
2022-10-01T16:53:45.501Z,12.01
2022-10-01T16:56:16.132Z,12.00
2022-10-01T16:58:47.431Z,12.00
2022-10-01T17:01:16.404Z,11.97
2022-10-01T17:03:44.037Z,11.96
2022-10-01T17:06:11.546Z,11.95
2022-10-01T17:08:47.818Z,11.93
2022-10-01T17:11:17.337Z,11.92
2022-10-01T17:13:44.928Z,11.92
2022-10-01T17:16:12.584Z,11.92
2022-10-01T17:18:40.226Z,11.89
2022-10-01T17:21:09.774Z,11.89
2022-10-01T17:23:37.419Z,11.86
2022-10-01T17:26:06.390Z,11.84
2022-10-01T17:28:36.404Z,11.83
2022-10-01T17:31:07.504Z,11.83
2022-10-01T17:33:35.234Z,11.84
2022-10-01T17:36:07.432Z,11.83
2022-10-01T17:38:35.258Z,11.81
2022-10-01T17:41:03.738Z,11.80
2022-10-01T17:43:31.328Z,11.79
2022-10-01T17:46:02.259Z,11.78
2022-10-01T17:48:30.046Z,11.78
2022-10-01T17:51:06.870Z,11.78
2022-10-01T17:53:41.912Z,11.80
2022-10-01T17:56:13.210Z,11.80
2022-10-01T17:58:44.996Z,11.80
2022-10-01T18:01:16.750Z,11.80
2022-10-01T18:03:44.308Z,11.81
2022-10-01T18:06:15.955Z,11.82
2022-10-01T18:08:55.211Z,11.83
2022-10-01T18:11:25.582Z,11.84
2022-10-01T18:13:53.325Z,11.86
2022-10-01T18:16:23.492Z,11.86
2022-10-01T18:21:42.848Z,11.86
2022-10-01T18:24:10.656Z,11.86
2022-10-01T18:26:38.546Z,11.86
2022-10-01T18:29:06.512Z,11.86
2022-10-01T18:31:37.293Z,11.87
2022-10-01T18:34:15.957Z,11.87
2022-10-01T18:36:52.911Z,11.89
2022-10-01T18:39:27.692Z,11.90
2022-10-01T18:41:55.218Z,11.91
2022-10-01T18:44:24.097Z,11.92
2022-10-01T18:47:03.170Z,11.93
2022-10-01T18:49:59.146Z,11.94
2022-10-01T18:52:40.437Z,11.96
2022-10-01T18:55:27.158Z,11.98
2022-10-01T18:58:19.321Z,12.00
2022-10-01T19:00:57.458Z,12.01
2022-10-01T19:03:53.419Z,12.04
2022-10-01T19:06:34.596Z,12.08
2022-10-01T19:09:14.713Z,12.09
2022-10-01T19:11:50.096Z,12.11
2022-10-01T19:14:51.735Z,12.13
2022-10-01T19:17:33.596Z,12.15
2022-10-01T19:20:16.176Z,12.15
2022-10-01T19:22:57.472Z,12.15
2022-10-01T19:25:31.703Z,12.19
2022-10-01T19:28:11.311Z,12.21
2022-10-01T19:31:03.797Z,12.22
2022-10-01T19:33:35.478Z,12.23
2022-10-01T19:36:06.677Z,12.24
2022-10-01T19:38:38.886Z,12.25
2022-10-01T19:41:12.983Z,12.26
2022-10-01T19:43:50.150Z,12.27
2022-10-01T19:46:22.754Z,12.29
2022-10-01T19:48:57.099Z,12.28
2022-10-01T19:51:31.096Z,12.30
2022-10-01T19:54:01.390Z,12.31
2022-10-01T19:56:31.242Z,12.32
2022-10-01T19:59:03.144Z,12.31
2022-10-01T20:01:38.943Z,12.30
2022-10-01T20:04:14.616Z,12.32
2022-10-01T20:06:47.090Z,12.32
2022-10-01T20:09:23.899Z,12.31
2022-10-01T20:12:00.052Z,12.32
2022-10-01T20:15:00.913Z,12.30
2022-10-01T20:17:37.589Z,12.29
2022-10-01T20:20:18.651Z,12.27
2022-10-01T20:23:03.267Z,12.26
2022-10-01T20:25:41.213Z,12.25
2022-10-01T20:28:16.133Z,12.24
2022-10-01T20:30:51.950Z,12.23
2022-10-01T20:33:29.650Z,12.22
2022-10-01T20:36:03.919Z,12.22
2022-10-01T20:38:37.943Z,12.22
2022-10-01T20:41:11.465Z,12.17
2022-10-01T20:43:49.162Z,12.16
2022-10-01T20:46:23.849Z,12.14
2022-10-01T20:48:58.890Z,12.12
2022-10-01T20:51:35.970Z,12.11
2022-10-01T20:54:11.126Z,12.11
2022-10-01T20:56:42.601Z,12.10
2022-10-01T20:59:17.799Z,12.06
2022-10-01T21:01:54.026Z,12.04
2022-10-01T21:04:28.044Z,12.04
2022-10-01T21:07:02.039Z,12.03
2022-10-01T21:09:36.504Z,12.02
2022-10-01T21:12:08.334Z,12.01
2022-10-01T21:14:41.685Z,11.97
2022-10-01T21:17:37.840Z,11.97
2022-10-01T21:20:26.114Z,11.95
2022-10-01T21:23:06.135Z,11.94
2022-10-01T21:25:50.268Z,11.93
2022-10-01T21:28:47.565Z,11.92
2022-10-01T21:31:26.021Z,11.91
2022-10-01T21:33:55.484Z,11.89
2022-10-01T21:36:32.146Z,11.90
2022-10-01T21:39:06.553Z,11.88
2022-10-01T21:41:59.111Z,11.88
2022-10-01T21:44:56.941Z,11.87
2022-10-01T21:47:34.186Z,11.86
2022-10-01T21:50:09.600Z,11.84
2022-10-01T21:52:47.335Z,11.83
2022-10-01T21:55:30.054Z,11.80
2022-10-01T21:58:14.422Z,11.79
2022-10-01T22:00:42.255Z,11.77
2022-10-01T22:03:19.138Z,11.75
2022-10-01T22:05:52.735Z,11.73
2022-10-01T22:08:32.957Z,11.73
2022-10-01T22:11:03.526Z,11.72
2022-10-01T22:13:36.743Z,11.72
2022-10-01T22:16:08.311Z,11.71
2022-10-01T22:18:41.278Z,11.69
2022-10-01T22:21:12.986Z,11.68
2022-10-01T22:23:47.232Z,11.69
2022-10-01T22:26:19.145Z,11.66
2022-10-01T22:28:51.425Z,11.65
2022-10-01T22:31:22.522Z,11.67
2022-10-01T22:33:55.699Z,11.66
2022-10-01T22:36:27.997Z,11.65
2022-10-01T22:39:01.142Z,11.64
2022-10-01T22:41:33.977Z,11.63
2022-10-01T22:44:10.606Z,11.64
2022-10-01T22:47:07.506Z,11.63
2022-10-01T22:49:45.042Z,11.63
2022-10-01T22:52:21.716Z,11.62
2022-10-01T22:55:02.427Z,11.60
2022-10-01T22:57:48.184Z,11.59
2022-10-01T23:00:18.515Z,11.58
2022-10-01T23:02:52.249Z,11.58
2022-10-01T23:05:40.987Z,11.58
2022-10-01T23:08:21.014Z,11.57
2022-10-01T23:10:59.230Z,11.58
2022-10-01T23:13:35.791Z,11.55
2022-10-01T23:16:13.105Z,11.55
2022-10-01T23:18:52.292Z,11.55
2022-10-01T23:21:29.379Z,11.54
2022-10-01T23:24:06.711Z,11.54
2022-10-01T23:26:41.818Z,11.53
2022-10-01T23:29:32.648Z,11.52
2022-10-01T23:32:13.968Z,11.51
2022-10-01T23:34:52.589Z,11.51
2022-10-01T23:37:35.611Z,11.50
2022-10-01T23:40:07.441Z,11.51
2022-10-01T23:42:42.425Z,11.50
2022-10-01T23:45:24.863Z,11.48
2022-10-01T23:48:00.305Z,11.48
2022-10-01T23:50:34.208Z,11.49
2022-10-01T23:53:11.982Z,11.50
2022-10-01T23:56:04.372Z,11.49
2022-10-01T23:58:36.142Z,11.49
